Time;durP1;ratioP1;P1;durP2;ratioP2;P2;SDS_P1;SDS_P2;PMS_P1;PMS_P2;Temp;Humidity;BMP_temperature;BMP_pressure;BME280_temperature;BME280_humidity;BME280_pressure;Samples;Min_cycle;Max_cycle;Signal;HPM_P1;HPM_P2
2024/04/17 00:00:17;;;;;;;0.30;0.20;;;;;;;9.74;98.35;99444.13;5452533;26;20513;-49
2024/04/17 00:02:43;;;;;;;0.30;0.20;;;;;;;9.54;99.90;99449.31;5451954;26;20542;-49
2024/04/17 00:05:10;;;;;;;0.30;0.20;;;;;;;9.45;100.00;99452.31;5452417;26;20552;-49
2024/04/17 00:07:38;;;;;;;0.30;0.20;;;;;;;9.38;100.00;99446.38;5452251;26;20478;-49
2024/04/17 00:10:05;;;;;;;0.30;0.20;;;;;;;9.31;100.00;99446.66;5450307;26;20473;-49
2024/04/17 00:12:31;;;;;;;0.30;0.20;;;;;;;9.26;100.00;99452.13;5452029;26;20533;-49
2024/04/17 00:14:58;;;;;;;0.30;0.20;;;;;;;9.39;100.00;99441.94;5452213;26;21014;-49
2024/04/17 00:17:24;;;;;;;0.30;0.20;;;;;;;9.31;100.00;99438.69;5451764;26;20474;-49
2024/04/17 00:19:51;;;;;;;0.30;0.20;;;;;;;9.34;100.00;99450.09;5451192;26;20541;-49
2024/04/17 00:22:17;;;;;;;0.30;0.20;;;;;;;9.23;100.00;99443.44;5451790;26;20525;-49
2024/04/17 00:24:44;;;;;;;0.30;0.20;;;;;;;9.26;100.00;99441.53;5451958;26;20473;-49
2024/04/17 00:27:10;;;;;;;0.30;0.20;;;;;;;9.22;100.00;99442.56;5451692;26;20526;-49
2024/04/17 00:29:37;;;;;;;0.40;0.30;;;;;;;9.19;100.00;99445.34;5451952;26;20815;-49
2024/04/17 00:32:05;;;;;;;0.30;0.20;;;;;;;9.29;100.00;99443.19;5451557;26;20478;-49
2024/04/17 00:34:32;;;;;;;0.30;0.20;;;;;;;9.61;100.00;99449.97;5451956;26;20458;-49
2024/04/17 00:36:58;;;;;;;0.30;0.20;;;;;;;9.67;99.62;99453.25;5404412;26;20572;-49
2024/04/17 00:39:26;;;;;;;0.30;0.20;;;;;;;9.58;99.08;99453.56;5438207;26;21011;-49
2024/04/17 00:41:53;;;;;;;0.30;0.20;;;;;;;9.74;98.46;99448.56;5452158;26;20530;-49
2024/04/17 00:44:20;;;;;;;0.30;0.20;;;;;;;9.69;97.35;99454.03;5451498;26;20512;-49
2024/04/17 00:46:47;;;;;;;0.30;0.20;;;;;;;9.72;98.90;99459.22;5451588;26;20990;-49
2024/04/17 00:49:14;;;;;;;0.30;0.20;;;;;;;9.68;98.18;99457.63;5449141;26;20538;-49
2024/04/17 00:51:40;;;;;;;0.30;0.20;;;;;;;9.64;97.81;99463.13;5415812;26;21015;-49
2024/04/17 00:54:08;;;;;;;0.30;0.20;;;;;;;9.89;97.04;99455.06;5441056;26;21005;-49
2024/04/17 00:56:35;;;;;;;0.30;0.20;;;;;;;9.74;97.64;99464.50;5451501;26;20470;-49
2024/04/17 00:59:02;;;;;;;0.30;0.20;;;;;;;9.97;96.63;99456.47;5451309;26;20819;-49
2024/04/17 01:01:29;;;;;;;0.30;0.20;;;;;;;9.45;98.47;99462.91;5451176;26;20534;-49
2024/04/17 01:03:55;;;;;;;0.30;0.20;;;;;;;9.41;99.55;99459.53;5450996;26;21025;-49
2024/04/17 01:06:22;;;;;;;0.30;0.20;;;;;;;9.51;99.34;99452.09;5451209;26;20945;-49
2024/04/17 01:08:49;;;;;;;0.30;0.20;;;;;;;9.41;100.00;99456.88;5449678;26;20533;-49
2024/04/17 01:11:15;;;;;;;0.30;0.20;;;;;;;9.62;100.00;99463.19;5451200;26;20870;-49
2024/04/17 01:13:42;;;;;;;0.30;0.20;;;;;;;9.49;100.00;99467.22;5450770;26;21025;-49
2024/04/17 01:16:09;;;;;;;0.30;0.20;;;;;;;9.69;100.00;99466.44;5451149;26;21083;-49
2024/04/17 01:18:36;;;;;;;0.30;0.20;;;;;;;9.41;100.00;99456.00;5450791;26;21013;-49
2024/04/17 01:21:03;;;;;;;0.30;0.20;;;;;;;9.22;100.00;99458.50;5451146;26;20873;-49
2024/04/17 01:23:30;;;;;;;0.30;0.20;;;;;;;9.90;100.00;99462.97;5450737;26;20478;-49
2024/04/17 01:25:56;;;;;;;0.30;0.20;;;;;;;9.86;98.85;99463.13;5451070;26;20469;-49
2024/04/17 01:28:23;;;;;;;0.30;0.20;;;;;;;9.41;100.00;99466.63;5450505;26;20473;-49
2024/04/17 01:30:49;;;;;;;0.30;0.20;;;;;;;9.19;100.00;99463.91;5450774;26;20545;-49
2024/04/17 01:33:17;;;;;;;0.30;0.20;;;;;;;9.08;100.00;99463.41;5452973;26;20485;-49
2024/04/17 01:35:43;;;;;;;0.30;0.20;;;;;;;9.46;100.00;99460.25;5454675;26;20583;-49
2024/04/17 01:38:10;;;;;;;0.30;0.20;;;;;;;9.23;100.00;99462.88;5454437;26;21018;-49
2024/04/17 01:40:36;;;;;;;0.30;0.20;;;;;;;9.03;100.00;99458.25;5440481;26;20465;-49
2024/04/17 01:43:03;;;;;;;0.30;0.20;;;;;;;9.13;100.00;99459.66;5454185;26;20489;-49
2024/04/17 01:45:29;;;;;;;0.30;0.20;;;;;;;8.94;100.00;99458.63;5454415;26;20469;-49
2024/04/17 01:47:56;;;;;;;0.30;0.20;;;;;;;8.88;100.00;99470.28;5454204;26;20525;-49
2024/04/17 01:50:29;;;;;;;0.30;0.20;;;;;;;8.83;100.00;99469.59;5436714;26;20495;-49
2024/04/17 01:52:56;;;;;;;0.30;0.20;;;;;;;8.80;100.00;99472.34;5426201;26;20466;-49
2024/04/17 01:55:22;;;;;;;0.30;0.20;;;;;;;8.65;100.00;99466.72;5454152;26;20646;-49
2024/04/17 01:57:49;;;;;;;0.30;0.20;;;;;;;8.67;100.00;99473.69;5454050;26;20522;-49
2024/04/17 02:00:16;;;;;;;0.30;0.20;;;;;;;8.55;100.00;99466.16;5454210;26;20528;-50
2024/04/17 02:02:42;;;;;;;0.30;0.20;;;;;;;8.56;100.00;99474.03;5453957;26;21006;-46
2024/04/17 02:05:09;;;;;;;0.30;0.20;;;;;;;8.63;100.00;99474.69;5453953;26;20840;-47
2024/04/17 02:07:35;;;;;;;0.30;0.20;;;;;;;8.67;100.00;99475.47;5453774;26;21017;-46
2024/04/17 02:10:02;;;;;;;0.30;0.20;;;;;;;8.71;100.00;99474.44;5452056;26;20538;-47
2024/04/17 02:12:29;;;;;;;0.30;0.20;;;;;;;8.57;100.00;99475.75;5453901;26;20482;-46
2024/04/17 02:14:55;;;;;;;0.30;0.20;;;;;;;8.76;100.00;99481.28;5452301;26;20530;-47
2024/04/17 02:17:22;;;;;;;0.30;0.20;;;;;;;8.76;100.00;99478.66;5453904;26;20575;-47
2024/04/17 02:19:49;;;;;;;0.30;0.20;;;;;;;8.75;100.00;99476.91;5454061;26;20541;-46
2024/04/17 02:22:15;;;;;;;0.30;0.20;;;;;;;8.76;100.00;99480.44;5453682;26;20871;-47
2024/04/17 02:24:42;;;;;;;0.30;0.20;;;;;;;8.66;100.00;99468.44;5453627;26;20474;-46
2024/04/17 02:27:09;;;;;;;0.30;0.20;;;;;;;8.70;100.00;99476.22;5453824;26;20473;-46
2024/04/17 02:29:35;;;;;;;0.30;0.20;;;;;;;8.78;100.00;99487.44;5453792;26;20469;-47
2024/04/17 02:32:02;;;;;;;0.30;0.20;;;;;;;8.55;100.00;99471.44;5453614;26;20470;-47
2024/04/17 02:34:29;;;;;;;0.30;0.20;;;;;;;8.76;100.00;99475.13;5453757;26;20457;-46
2024/04/17 02:36:55;;;;;;;0.30;0.20;;;;;;;8.76;100.00;99478.66;5453685;26;20589;-47
2024/04/17 02:39:22;;;;;;;0.30;0.20;;;;;;;8.65;100.00;99477.31;5440570;26;20589;-46
2024/04/17 02:41:48;;;;;;;0.30;0.20;;;;;;;8.67;100.00;99473.69;5453424;26;20481;-46
2024/04/17 02:44:15;;;;;;;0.30;0.20;;;;;;;8.67;100.00;99471.03;5452904;26;20522;-46
2024/04/17 02:46:41;;;;;;;0.30;0.20;;;;;;;8.69;100.00;99473.63;5453836;26;20469;-47
2024/04/17 02:49:08;;;;;;;0.30;0.20;;;;;;;8.75;100.00;99473.41;5452476;26;20473;-47
2024/04/17 02:51:35;;;;;;;0.30;0.20;;;;;;;8.75;100.00;99476.06;5415236;26;20547;-47
2024/04/17 02:54:01;;;;;;;0.30;0.20;;;;;;;8.67;100.00;99476.34;5441603;26;21051;-47
2024/04/17 02:56:28;;;;;;;0.30;0.20;;;;;;;8.65;100.00;99472.00;5453531;26;21076;-46
2024/04/17 02:58:54;;;;;;;0.30;0.20;;;;;;;8.67;100.00;99464.88;5453349;26;20583;-47
2024/04/17 03:01:21;;;;;;;0.30;0.20;;;;;;;8.87;100.00;99472.97;5453246;26;20478;-47
2024/04/17 03:03:48;;;;;;;0.30;0.20;;;;;;;9.08;100.00;99466.94;5453225;26;20473;-48
2024/04/17 03:06:14;;;;;;;0.30;0.20;;;;;;;9.34;100.00;99473.09;5406487;26;20522;-47
2024/04/17 03:08:41;;;;;;;0.30;0.20;;;;;;;9.39;100.00;99477.28;5450576;26;20522;-47
2024/04/17 03:11:07;;;;;;;0.30;0.20;;;;;;;9.53;98.55;99474.13;5453374;26;21002;-47
2024/04/17 03:13:34;;;;;;;0.30;0.20;;;;;;;9.28;99.05;99479.47;5452817;26;20616;-47
2024/04/17 03:16:02;;;;;;;0.30;0.20;;;;;;;9.34;99.62;99481.03;5453131;26;21014;-47
2024/04/17 03:18:29;;;;;;;0.30;0.20;;;;;;;9.38;99.60;99480.00;5452792;26;20474;-47
2024/04/17 03:20:59;;;;;;;0.30;0.20;;;;;;;9.48;99.15;99476.09;5453029;26;20489;-47
2024/04/17 03:23:26;;;;;;;0.30;0.20;;;;;;;9.43;98.73;99486.00;5453063;26;20462;-46
2024/04/17 03:25:57;;;;;;;0.30;0.20;;;;;;;9.46;97.83;99483.25;5452911;26;20583;-48
2024/04/17 03:28:23;;;;;;;0.30;0.20;;;;;;;9.35;99.66;99485.44;5452875;26;20481;-47
2024/04/17 03:30:50;;;;;;;0.30;0.20;;;;;;;9.38;98.02;99495.91;5453003;26;20478;-47
2024/04/17 03:33:17;;;;;;;0.30;0.20;;;;;;;9.25;99.14;99491.97;5452492;26;20469;-47
2024/04/17 03:35:57;;;;;;;0.30;0.20;;;;;;;9.22;99.56;99497.41;5452952;26;20617;-47
2024/04/17 03:38:25;;;;;;;0.30;0.20;;;;;;;9.44;100.00;99498.31;5452758;26;20489;-47
2024/04/17 03:40:52;;;;;;;0.30;0.20;;;;;;;9.27;99.92;99508.69;5437920;26;20536;-48
2024/04/17 03:43:19;;;;;;;0.30;0.20;;;;;;;9.47;99.64;99504.41;5452456;26;20528;-47
2024/04/17 03:45:45;;;;;;;0.30;0.20;;;;;;;9.28;99.12;99508.63;5452568;26;20522;-47
2024/04/17 03:48:12;;;;;;;0.30;0.20;;;;;;;9.20;99.50;99516.88;5452480;26;20522;-47
2024/04/17 03:50:39;;;;;;;0.30;0.20;;;;;;;9.22;100.00;99518.59;5428998;26;20593;-47
2024/04/17 03:53:05;;;;;;;0.30;0.20;;;;;;;9.17;99.39;99514.31;5426936;26;20585;-46
2024/04/17 03:55:32;;;;;;;0.30;0.20;;;;;;;9.21;99.83;99528.34;5451248;26;20454;-47
2024/04/17 03:57:58;;;;;;;0.30;0.20;;;;;;;9.48;97.26;99518.53;5452145;26;21010;-47
2024/04/17 04:00:25;;;;;;;0.30;0.20;;;;;;;9.35;96.40;99512.81;5452292;26;20469;-46
2024/04/17 04:02:51;;;;;;;0.30;0.20;;;;;;;9.07;98.95;99520.00;5452072;26;20485;-47
2024/04/17 04:05:18;;;;;;;0.30;0.20;;;;;;;9.18;97.96;99521.38;5452456;26;20927;-47
2024/04/17 04:07:45;;;;;;;0.30;0.20;;;;;;;9.32;97.32;99517.34;5452921;26;20526;-46
2024/04/17 04:10:11;;;;;;;0.30;0.20;;;;;;;9.16;96.70;99522.31;5450804;26;20469;-46
2024/04/17 04:12:38;;;;;;;0.30;0.20;;;;;;;9.24;97.57;99530.03;5452152;26;20482;-47
2024/04/17 04:15:06;;;;;;;0.30;0.20;;;;;;;9.14;98.12;99529.47;5452591;26;21038;-48
2024/04/17 04:17:33;;;;;;;0.30;0.20;;;;;;;9.24;97.05;99538.84;5452271;26;20592;-47
2024/04/17 04:20:00;;;;;;;0.30;0.20;;;;;;;9.14;96.52;99532.97;5451802;26;20489;-47
2024/04/17 04:22:26;;;;;;;0.30;0.20;;;;;;;9.32;95.28;99527.94;5452175;26;20534;-47
2024/04/17 04:24:53;;;;;;;0.30;0.20;;;;;;;9.00;97.05;99543.19;5451697;26;20470;-47
2024/04/17 04:27:20;;;;;;;0.30;0.20;;;;;;;9.29;96.55;99544.84;5451926;26;20513;-47
2024/04/17 04:29:46;;;;;;;0.30;0.20;;;;;;;9.30;95.14;99545.69;5451847;26;21014;-47
2024/04/17 04:32:13;;;;;;;0.30;0.20;;;;;;;8.96;96.08;99541.59;5451734;26;20477;-47
2024/04/17 04:34:39;;;;;;;0.30;0.20;;;;;;;9.11;95.50;99546.34;5451612;26;20466;-47
2024/04/17 04:37:06;;;;;;;0.30;0.20;;;;;;;8.87;95.80;99550.69;5451752;26;20521;-47
2024/04/17 04:39:32;;;;;;;0.30;0.20;;;;;;;8.76;95.91;99555.47;5437315;26;20830;-47
2024/04/17 04:41:59;;;;;;;0.30;0.20;;;;;;;8.88;94.66;99538.31;5451384;26;20478;-47
2024/04/17 04:44:25;;;;;;;0.30;0.20;;;;;;;8.60;94.71;99556.91;5451361;26;20474;-47
2024/04/17 04:46:53;;;;;;;0.30;0.20;;;;;;;8.79;94.37;99562.50;5451568;26;20613;-46
2024/04/17 04:49:20;;;;;;;0.30;0.20;;;;;;;9.01;94.22;99563.50;5447040;26;20465;-47
2024/04/17 04:51:46;;;;;;;0.30;0.20;;;;;;;9.26;93.54;99566.16;5415816;26;20479;-47
2024/04/17 04:54:13;;;;;;;0.30;0.20;;;;;;;9.10;93.26;99568.47;5442117;26;20473;-47
2024/04/17 04:56:40;;;;;;;0.30;0.20;;;;;;;9.22;93.02;99577.81;5451348;26;20477;-47
2024/04/17 04:59:07;;;;;;;0.30;0.20;;;;;;;9.18;91.95;99570.84;5451422;26;20514;-47
2024/04/17 05:01:33;;;;;;;0.30;0.20;;;;;;;9.03;92.83;99576.69;5450328;26;20477;-48
2024/04/17 05:04:00;;;;;;;0.30;0.20;;;;;;;8.74;94.71;99580.31;5451028;26;20474;-47
2024/04/17 05:06:26;;;;;;;0.30;0.20;;;;;;;8.78;94.31;99576.66;5452464;26;21029;-47
2024/04/17 05:08:53;;;;;;;0.30;0.20;;;;;;;8.80;96.36;99582.78;5452580;26;20467;-46
2024/04/17 05:11:19;;;;;;;0.30;0.20;;;;;;;8.64;96.97;99581.53;5454984;26;20522;-47
2024/04/17 05:13:46;;;;;;;0.30;0.20;;;;;;;8.65;96.97;99583.28;5447161;26;20586;-46
2024/04/17 05:16:13;;;;;;;0.30;0.20;;;;;;;8.56;97.95;99592.38;5415425;26;20470;-47
2024/04/17 05:18:39;;;;;;;0.30;0.20;;;;;;;8.94;96.78;99582.31;5454572;26;21009;-47
2024/04/17 05:21:06;;;;;;;0.30;0.20;;;;;;;8.68;96.29;99588.47;5454530;26;20533;-46
2024/04/17 05:23:32;;;;;;;0.30;0.20;;;;;;;8.88;96.64;99594.84;5454580;26;20513;-47
2024/04/17 05:25:59;;;;;;;0.30;0.20;;;;;;;9.12;95.67;99601.09;5454509;26;20470;-46
2024/04/17 05:28:26;;;;;;;0.30;0.20;;;;;;;8.97;94.94;99593.69;5454006;26;20473;-47
2024/04/17 05:30:58;;;;;;;0.30;0.20;;;;;;;9.14;94.01;99599.25;5454666;26;20477;-46
2024/04/17 05:33:25;;;;;;;0.30;0.20;;;;;;;9.24;94.11;99605.13;5454254;26;20560;-48
2024/04/17 05:35:52;;;;;;;0.30;0.20;;;;;;;9.37;93.97;99617.06;5454642;26;20469;-47
2024/04/17 05:38:18;;;;;;;0.30;0.20;;;;;;;9.72;92.78;99617.59;5454172;26;20470;-46
2024/04/17 05:40:46;;;;;;;0.30;0.20;;;;;;;10.20;90.76;99619.38;5440109;26;20850;-46
2024/04/17 05:43:15;;;;;;;0.30;0.20;;;;;;;10.51;88.50;99625.25;5454262;26;20473;-47
2024/04/17 05:45:44;;;;;;;0.30;0.20;;;;;;;10.70;87.22;99625.41;5454458;26;20477;-46
2024/04/17 05:48:11;;;;;;;0.30;0.20;;;;;;;10.80;86.14;99626.75;5454388;26;20587;-47
2024/04/17 05:50:39;;;;;;;0.30;0.20;;;;;;;10.75;86.76;99619.91;5430917;26;20482;-47
2024/04/17 05:53:06;;;;;;;0.30;0.20;;;;;;;11.02;84.36;99629.44;5428458;26;20470;-46
2024/04/17 05:55:34;;;;;;;0.30;0.20;;;;;;;10.84;83.76;99623.06;5454343;26;21039;-46
2024/04/17 05:58:01;;;;;;;0.30;0.20;;;;;;;10.64;83.85;99626.50;5453995;26;20529;-47
2024/04/17 06:00:27;;;;;;;0.30;0.20;;;;;;;10.45;83.66;99629.97;5454015;26;20474;-47
2024/04/17 06:02:54;;;;;;;0.30;0.20;;;;;;;10.59;83.92;99635.59;5433253;26;20529;-46
2024/04/17 06:05:22;;;;;;;0.30;0.20;;;;;;;10.54;82.21;99637.56;5428639;26;20465;-47
2024/04/17 06:07:49;;;;;;;0.30;0.20;;;;;;;10.64;81.47;99638.94;5453933;26;20477;-47
2024/04/17 06:10:15;;;;;;;0.30;0.20;;;;;;;10.54;79.49;99630.44;5450496;26;20583;-47
2024/04/17 06:12:42;;;;;;;0.30;0.20;;;;;;;10.72;79.22;99639.50;5453696;26;20595;-47
2024/04/17 06:15:09;;;;;;;0.30;0.20;;;;;;;10.29;80.11;99637.66;5454084;26;20526;-46
2024/04/17 06:17:36;;;;;;;0.30;0.20;;;;;;;10.40;81.15;99643.41;5453038;26;20550;-47
2024/04/17 06:20:03;;;;;;;0.30;0.20;;;;;;;10.03;79.92;99644.78;5453697;26;20478;-47
2024/04/17 06:22:29;;;;;;;0.30;0.20;;;;;;;9.96;80.77;99655.66;5406634;26;20655;-46
2024/04/17 06:24:56;;;;;;;0.30;0.20;;;;;;;9.87;79.41;99653.31;5453727;26;20478;-47
2024/04/17 06:27:23;;;;;;;0.30;0.20;;;;;;;10.01;79.75;99657.25;5453752;26;21073;-47
2024/04/17 06:29:49;;;;;;;0.30;0.20;;;;;;;9.70;79.23;99657.44;5453500;26;20465;-47
2024/04/17 06:32:16;;;;;;;0.30;0.20;;;;;;;9.35;80.56;99656.03;5453484;26;20587;-47
2024/04/17 06:34:42;;;;;;;0.30;0.20;;;;;;;9.63;79.91;99655.94;5453394;26;20478;-47
2024/04/17 06:37:09;;;;;;;0.30;0.20;;;;;;;9.82;79.98;99658.81;5453523;26;20478;-47
2024/04/17 06:39:36;;;;;;;0.30;0.20;;;;;;;9.53;78.55;99656.31;5437160;26;20578;-47
2024/04/17 06:42:03;;;;;;;0.30;0.20;;;;;;;9.57;80.56;99661.44;5406511;26;20482;-47
2024/04/17 06:44:29;;;;;;;0.30;0.20;;;;;;;9.52;80.09;99666.06;5453210;26;20469;-48
2024/04/17 06:46:56;;;;;;;0.30;0.20;;;;;;;9.61;78.94;99663.09;5453373;26;20587;-48
2024/04/17 06:49:24;;;;;;;0.30;0.20;;;;;;;9.17;79.27;99668.09;5448371;26;20465;-48
2024/04/17 06:51:51;;;;;;;0.30;0.20;;;;;;;9.26;79.75;99666.94;5417745;26;20479;-47
2024/04/17 06:54:17;;;;;;;0.30;0.20;;;;;;;9.39;78.47;99672.69;5445546;26;21062;-47
2024/04/17 06:56:44;;;;;;;0.30;0.20;;;;;;;9.31;78.01;99678.25;5453561;26;20534;-48
2024/04/17 06:59:10;;;;;;;0.30;0.20;;;;;;;9.15;79.22;99677.03;5453236;26;20470;-47
2024/04/17 07:01:37;;;;;;;0.30;0.20;;;;;;;9.54;78.35;99688.09;5453010;26;20482;-47
2024/04/17 07:04:04;;;;;;;0.30;0.20;;;;;;;9.72;75.88;99683.94;5453014;26;20537;-47
2024/04/17 07:06:30;;;;;;;0.30;0.20;;;;;;;9.68;75.86;99683.19;5453070;26;20819;-48
2024/04/17 07:08:58;;;;;;;0.30;0.20;;;;;;;9.62;74.60;99685.19;5450685;26;20561;-47
2024/04/17 07:11:25;;;;;;;0.30;0.20;;;;;;;9.70;75.27;99683.97;5453077;26;20593;-46
2024/04/17 07:13:51;;;;;;;0.30;0.20;;;;;;;9.90;73.68;99687.75;5452787;26;20532;-47
2024/04/17 07:16:18;;;;;;;0.30;0.20;;;;;;;9.85;74.42;99685.22;5453167;26;20541;-47
2024/04/17 07:18:46;;;;;;;0.30;0.20;;;;;;;9.86;74.65;99681.66;5452922;26;20477;-47
2024/04/17 07:21:12;;;;;;;0.30;0.20;;;;;;;9.83;73.84;99683.56;5452977;26;20536;-49
2024/04/17 07:23:39;;;;;;;0.30;0.20;;;;;;;10.16;75.67;99689.47;5452858;26;20477;-49
2024/04/17 07:26:07;;;;;;;0.30;0.20;;;;;;;10.21;74.76;99680.44;5452980;26;20828;-49
2024/04/17 07:28:34;;;;;;;0.30;0.20;;;;;;;10.20;75.20;99683.97;5452801;26;20522;-49
2024/04/17 07:31:00;;;;;;;0.30;0.20;;;;;;;10.00;72.45;99694.44;5452883;26;20545;-47
2024/04/17 07:33:27;;;;;;;0.30;0.20;;;;;;;10.29;73.13;99690.78;5452585;26;20575;-46
2024/04/17 07:35:58;;;;;;;0.30;0.20;;;;;;;10.54;72.19;99701.31;5453113;26;20591;-47
2024/04/17 07:38:25;;;;;;;0.30;0.20;;;;;;;10.24;71.86;99693.59;5452741;26;21067;-46
2024/04/17 07:40:56;;;;;;;0.30;0.20;;;;;;;10.21;70.78;99706.09;5437038;26;20541;-46
2024/04/17 07:43:23;;;;;;;0.30;0.20;;;;;;;10.64;67.13;99702.72;5452419;26;20469;-46
2024/04/17 07:45:52;;;;;;;0.30;0.20;;;;;;;10.42;67.67;99701.81;5452688;26;20836;-47
2024/04/17 07:48:19;;;;;;;0.30;0.20;;;;;;;10.29;67.91;99702.28;5452399;26;20530;-46
2024/04/17 07:50:45;;;;;;;0.30;0.20;;;;;;;10.52;66.90;99701.38;5427280;26;20539;-46
2024/04/17 07:53:12;;;;;;;0.30;0.20;;;;;;;10.71;66.55;99703.38;5428512;26;20470;-48
2024/04/17 07:55:39;;;;;;;0.30;0.20;;;;;;;10.71;66.09;99704.22;5452497;26;21018;-47
2024/04/17 07:58:05;;;;;;;0.30;0.20;;;;;;;10.67;66.55;99702.59;5452545;26;20574;-47
2024/04/17 08:00:32;;;;;;;0.30;0.20;;;;;;;10.52;66.20;99703.19;5452068;26;20527;-47
2024/04/17 08:02:58;;;;;;;0.30;0.20;;;;;;;10.95;64.37;99702.38;5459793;21;20554;-50
2024/04/17 08:05:25;;;;;;;0.30;0.20;;;;;;;10.77;63.44;99701.31;5451981;26;20477;-50
2024/04/17 08:07:55;;;;;;;0.30;0.20;;;;;;;10.65;64.03;99701.78;5452443;26;20604;-50
2024/04/17 08:10:21;;;;;;;0.30;0.20;;;;;;;10.66;60.94;99699.06;5450150;26;20485;-50
2024/04/17 08:12:48;;;;;;;0.30;0.20;;;;;;;10.86;61.44;99708.09;5452283;26;20533;-49
2024/04/17 08:15:14;;;;;;;0.30;0.20;;;;;;;10.77;63.05;99709.31;5452070;26;21069;-50
2024/04/17 08:17:42;;;;;;;0.30;0.20;;;;;;;10.56;61.58;99700.38;5452482;26;20815;-50
2024/04/17 08:20:09;;;;;;;0.30;0.20;;;;;;;10.43;64.57;99709.72;5451962;26;20626;-50
2024/04/17 08:22:35;;;;;;;0.30;0.20;;;;;;;10.51;60.50;99699.66;5450460;26;20529;-49
2024/04/17 08:25:02;;;;;;;0.30;0.20;;;;;;;11.22;62.06;99700.41;5451925;26;20588;-49
2024/04/17 08:27:29;;;;;;;0.30;0.20;;;;;;;11.38;61.38;99698.88;5452153;26;20814;-49
2024/04/17 08:29:55;;;;;;;0.30;0.20;;;;;;;11.57;60.36;99705.16;5443839;26;20469;-49
2024/04/17 08:32:22;;;;;;;0.30;0.20;;;;;;;11.53;61.33;99706.22;5412588;26;20477;-50
2024/04/17 08:34:48;;;;;;;0.30;0.20;;;;;;;11.34;60.30;99705.22;5451481;26;20872;-50
2024/04/17 08:37:18;;;;;;;0.30;0.20;;;;;;;11.38;58.44;99701.53;5451813;26;21002;-50
2024/04/17 08:39:45;;;;;;;0.30;0.20;;;;;;;11.72;57.51;99698.31;5438275;26;20474;-50
2024/04/17 08:42:20;;;;;;;0.30;0.20;;;;;;;11.34;59.87;99701.72;5453773;26;20465;-50
2024/04/17 08:44:47;;;;;;;0.30;0.20;;;;;;;11.32;61.07;99692.94;5455269;26;20477;-50
2024/04/17 08:47:14;;;;;;;0.30;0.20;;;;;;;11.09;62.32;99697.38;5455411;26;20470;-50
2024/04/17 08:49:44;;;;;;;0.30;0.20;;;;;;;11.47;61.79;99698.47;5445550;26;21078;-50
2024/04/17 08:52:11;;;;;;;0.30;0.20;;;;;;;11.57;60.04;99691.84;5419456;26;20479;-50
2024/04/17 08:54:42;;;;;;;0.30;0.20;;;;;;;11.61;60.16;99703.22;5452724;26;20470;-50
2024/04/17 08:57:10;;;;;;;0.30;0.20;;;;;;;11.94;59.44;99698.28;5455349;26;20587;-50
2024/04/17 08:59:37;;;;;;;0.30;0.20;;;;;;;12.13;58.61;99704.53;5455102;26;20474;-50
2024/04/17 09:02:12;;;;;;;0.30;0.20;;;;;;;12.52;55.64;99702.81;5454864;26;20534;-50
2024/04/17 09:04:42;;;;;;;0.30;0.20;;;;;;;12.27;54.29;99711.06;5455135;26;20550;-50
2024/04/17 09:07:10;;;;;;;0.30;0.20;;;;;;;12.06;56.37;99697.75;5454809;26;20532;-50
2024/04/17 09:09:40;;;;;;;0.30;0.20;;;;;;;12.13;53.70;99699.19;5453019;26;20465;-50
2024/04/17 09:12:12;;;;;;;0.30;0.20;;;;;;;12.13;54.29;99693.88;5454526;26;20587;-50
2024/04/17 09:14:39;;;;;;;0.30;0.20;;;;;;;12.29;55.66;99696.72;5455037;26;20522;-50
2024/04/17 09:17:16;;;;;;;0.30;0.20;;;;;;;12.13;55.46;99701.00;5454490;26;20481;-51
2024/04/17 09:19:43;;;;;;;10.93;9.83;;;;;;;12.48;55.70;99702.09;5454647;26;20591;-50
2024/04/17 09:22:10;;;;;;;0.30;0.20;;;;;;;12.43;52.07;99706.75;5454284;26;20935;-50
2024/04/17 09:24:38;;;;;;;0.30;0.20;;;;;;;12.29;53.67;99698.50;5454539;26;20473;-50
2024/04/17 09:27:12;;;;;;;0.30;0.20;;;;;;;12.64;53.70;99704.91;5454473;26;20453;-50
2024/04/17 09:29:39;;;;;;;0.30;0.20;;;;;;;13.01;52.68;99693.34;5454657;26;20576;-50
2024/04/17 09:32:12;;;;;;;0.30;0.20;;;;;;;12.77;51.77;99700.75;5454429;26;20473;-51
2024/04/17 09:34:38;;;;;;;0.30;0.20;;;;;;;12.76;52.24;99701.69;5454255;26;20575;-50
2024/04/17 09:37:08;;;;;;;0.30;0.20;;;;;;;12.81;49.85;99698.78;5454541;26;20830;-50
2024/04/17 09:39:35;;;;;;;0.30;0.20;;;;;;;12.40;49.42;99693.56;5439861;26;20841;-50
2024/04/17 09:42:06;;;;;;;0.30;0.20;;;;;;;12.80;49.96;99700.59;5454443;26;20524;-51
2024/04/17 09:44:38;;;;;;;0.30;0.20;;;;;;;12.48;48.40;99699.44;5454325;26;20519;-50
2024/04/17 09:47:11;;;;;;;0.30;0.20;;;;;;;12.98;47.31;99697.03;5454511;26;21034;-50
2024/04/17 09:49:45;;;;;;;0.30;0.20;;;;;;;13.39;47.99;99688.84;5445836;26;20513;-51
2024/04/17 09:52:18;;;;;;;0.30;0.20;;;;;;;13.05;47.04;99689.63;5418006;26;20580;-50
2024/04/17 09:54:45;;;;;;;0.30;0.20;;;;;;;13.17;47.62;99683.69;5452117;26;20473;-51
2024/04/17 09:57:12;;;;;;;0.30;0.20;;;;;;;13.76;46.63;99684.31;5454260;26;20469;-51
2024/04/17 09:59:39;;;;;;;0.30;0.20;;;;;;;13.88;46.56;99686.38;5453944;26;20469;-50
2024/04/17 10:02:09;;;;;;;0.30;0.20;;;;;;;13.89;46.20;99690.75;5454173;26;20485;-51
2024/04/17 10:04:38;;;;;;;0.30;0.20;;;;;;;14.00;46.11;99690.22;5452636;26;20473;-50
2024/04/17 10:07:09;;;;;;;0.30;0.20;;;;;;;14.41;45.33;99686.22;5453579;26;21092;-50
2024/04/17 10:09:36;;;;;;;0.30;0.20;;;;;;;14.22;44.75;99682.78;5451828;26;20466;-50
2024/04/17 10:12:03;;;;;;;0.30;0.20;;;;;;;13.79;42.03;99690.38;5453465;26;20538;-51
2024/04/17 10:14:30;;;;;;;0.30;0.20;;;;;;;13.94;41.41;99688.72;5453625;26;20609;-50
2024/04/17 10:16:56;;;;;;;0.30;0.20;;;;;;;13.36;42.69;99694.34;5453582;26;21254;-50
2024/04/17 10:19:23;;;;;;;0.30;0.20;;;;;;;12.97;41.96;99687.31;5453770;26;20485;-50
2024/04/17 10:21:54;;;;;;;0.30;0.20;;;;;;;13.14;44.23;99685.63;5453701;26;20530;-50
2024/04/17 10:24:20;;;;;;;0.30;0.20;;;;;;;13.03;44.31;99683.50;5453596;26;20469;-50
2024/04/17 10:26:49;;;;;;;0.30;0.20;;;;;;;13.30;43.87;99679.50;5453320;26;20474;-51
2024/04/17 10:29:17;;;;;;;0.30;0.20;;;;;;;13.48;44.27;99683.06;5453695;26;20477;-50
2024/04/17 10:32:02;;;;;;;0.30;0.20;;;;;;;13.57;44.34;99677.25;5453522;26;20522;-51
2024/04/17 10:34:40;;;;;;;0.30;0.20;;;;;;;13.52;45.73;99681.94;5453644;26;20477;-51
2024/04/17 10:37:08;;;;;;;0.30;0.20;;;;;;;13.42;45.56;99677.16;5453698;26;20485;-50
2024/04/17 10:39:37;;;;;;;0.30;0.20;;;;;;;13.34;45.21;99673.06;5438516;26;20519;-51
2024/04/17 10:42:08;;;;;;;0.30;0.20;;;;;;;12.96;45.56;99668.72;5452409;26;20477;-51
2024/04/17 10:44:35;;;;;;;0.30;0.20;;;;;;;13.11;46.27;99669.75;5452847;26;20525;-51
2024/04/17 10:47:03;;;;;;;0.30;0.20;;;;;;;13.26;46.60;99666.38;5453085;26;20518;-51
2024/04/17 10:49:38;;;;;;;0.30;0.20;;;;;;;13.38;46.71;99664.91;5446452;26;20479;-51
2024/04/17 10:52:05;;;;;;;0.30;0.20;;;;;;;13.47;45.85;99665.31;5417544;26;21129;-51
2024/04/17 10:54:34;;;;;;;0.30;0.20;;;;;;;13.36;46.05;99658.78;5448556;26;20522;-51
2024/04/17 10:57:06;;;;;;;0.30;0.20;;;;;;;13.42;46.60;99661.13;5453186;26;20476;-51
2024/04/17 10:59:32;;;;;;;0.30;0.20;;;;;;;12.94;46.98;99655.44;5453072;26;20553;-50
2024/04/17 11:01:59;;;;;;;0.30;0.20;;;;;;;13.32;46.97;99658.06;5453032;26;20493;-50
2024/04/17 11:04:26;;;;;;;0.30;0.20;;;;;;;13.27;47.20;99652.94;5452339;26;20578;-50
2024/04/17 11:06:53;;;;;;;0.30;0.20;;;;;;;13.49;46.65;99641.19;5452854;26;20592;-50
2024/04/17 11:09:19;;;;;;;0.30;0.20;;;;;;;13.84;46.64;99653.63;5450352;26;20466;-50
2024/04/17 11:11:47;;;;;;;0.30;0.20;;;;;;;14.17;46.52;99644.75;5452977;26;20466;-50
2024/04/17 11:14:15;;;;;;;0.30;0.20;;;;;;;13.56;47.02;99646.13;5452656;26;20474;-51
2024/04/17 11:16:42;;;;;;;0.30;0.20;;;;;;;13.37;46.74;99639.16;5453099;26;20529;-50
2024/04/17 11:19:13;;;;;;;0.30;0.20;;;;;;;14.12;46.03;99630.78;5406261;26;20522;-50
2024/04/17 11:21:43;;;;;;;0.30;0.20;;;;;;;14.24;45.71;99640.78;5452774;26;20529;-50
2024/04/17 11:24:17;;;;;;;0.30;0.20;;;;;;;14.34;45.74;99635.81;5452770;26;20650;-50
2024/04/17 11:26:45;;;;;;;0.30;0.20;;;;;;;14.57;42.58;99634.59;5452469;26;20474;-50
2024/04/17 11:29:21;;;;;;;0.30;0.20;;;;;;;14.52;41.46;99638.34;5452811;26;20477;-49
2024/04/17 11:32:02;;;;;;;0.30;0.20;;;;;;;13.91;41.80;99635.44;5452540;26;20526;-50
2024/04/17 11:34:29;;;;;;;0.30;0.20;;;;;;;14.19;44.08;99625.00;5452416;26;20489;-51
2024/04/17 11:37:02;;;;;;;0.30;0.20;;;;;;;14.67;43.40;99622.44;5452487;26;20808;-49